sensor_id;sensor_type;location;lat;lon;timestamp;pressure;altitude;pressure_sealevel;temperature;humidity
84926;BME280;75187;48.190;16.294;2024-02-28T00:00:22;98937.38;;;12.43;70.69
84926;BME280;75187;48.190;16.294;2024-02-28T00:02:47;98978.16;;;12.59;70.12
84926;BME280;75187;48.190;16.294;2024-02-28T00:05:12;98983.03;;;12.45;70.54
84926;BME280;75187;48.190;16.294;2024-02-28T00:07:38;98968.81;;;12.37;71.12
84926;BME280;75187;48.190;16.294;2024-02-28T00:10:03;98957.97;;;12.21;71.02
84926;BME280;75187;48.190;16.294;2024-02-28T00:12:29;98892.53;;;11.85;70.93
84926;BME280;75187;48.190;16.294;2024-02-28T00:14:54;98935.97;;;12.20;70.93
84926;BME280;75187;48.190;16.294;2024-02-28T00:17:20;98975.25;;;12.62;70.52
84926;BME280;75187;48.190;16.294;2024-02-28T00:19:45;98971.47;;;12.74;69.84
84926;BME280;75187;48.190;16.294;2024-02-28T00:22:10;98959.91;;;12.75;69.70
84926;BME280;75187;48.190;16.294;2024-02-28T00:24:36;98880.31;;;12.41;69.28
84926;BME280;75187;48.190;16.294;2024-02-28T00:27:01;98919.25;;;12.76;68.99
84926;BME280;75187;48.190;16.294;2024-02-28T00:29:26;98973.56;;;13.09;69.01
84926;BME280;75187;48.190;16.294;2024-02-28T00:31:52;98933.19;;;12.97;68.64
84926;BME280;75187;48.190;16.294;2024-02-28T00:34:18;98929.56;;;12.98;68.08
84926;BME280;75187;48.190;16.294;2024-02-28T00:36:43;98975.75;;;13.23;68.62
84926;BME280;75187;48.190;16.294;2024-02-28T00:39:09;98920.91;;;12.96;68.07
84926;BME280;75187;48.190;16.294;2024-02-28T00:41:34;98975.03;;;13.30;67.83
84926;BME280;75187;48.190;16.294;2024-02-28T00:43:59;98939.69;;;13.12;67.95
84926;BME280;75187;48.190;16.294;2024-02-28T00:46:25;98975.47;;;13.26;67.03
84926;BME280;75187;48.190;16.294;2024-02-28T00:48:50;98955.19;;;12.98;67.54
84926;BME280;75187;48.190;16.294;2024-02-28T00:51:15;98994.03;;;13.16;68.42
84926;BME280;75187;48.190;16.294;2024-02-28T00:53:41;98989.13;;;13.21;68.05
84926;BME280;75187;48.190;16.294;2024-02-28T00:56:08;98992.34;;;13.25;67.75
84926;BME280;75187;48.190;16.294;2024-02-28T00:58:33;98948.34;;;12.95;68.03
84926;BME280;75187;48.190;16.294;2024-02-28T01:00:59;98995.44;;;13.01;67.81
84926;BME280;75187;48.190;16.294;2024-02-28T01:03:24;98945.47;;;12.51;68.66
84926;BME280;75187;48.190;16.294;2024-02-28T01:05:50;98992.22;;;12.69;69.22
84926;BME280;75187;48.190;16.294;2024-02-28T01:08:16;98983.59;;;12.67;69.15
84926;BME280;75187;48.190;16.294;2024-02-28T01:10:45;98978.44;;;12.47;69.33
84926;BME280;75187;48.190;16.294;2024-02-28T01:13:14;98938.06;;;12.17;69.69
84926;BME280;75187;48.190;16.294;2024-02-28T01:15:43;98997.78;;;12.48;69.55
84926;BME280;75187;48.190;16.294;2024-02-28T01:18:10;99022.16;;;12.51;69.47
84926;BME280;75187;48.190;16.294;2024-02-28T01:20:36;99009.50;;;12.64;69.79
84926;BME280;75187;48.190;16.294;2024-02-28T01:23:01;99011.44;;;12.71;69.82
84926;BME280;75187;48.190;16.294;2024-02-28T01:25:27;99007.13;;;12.89;69.26
84926;BME280;75187;48.190;16.294;2024-02-28T01:27:52;99014.66;;;13.03;68.72
84926;BME280;75187;48.190;16.294;2024-02-28T01:30:17;98972.44;;;12.92;68.10
84926;BME280;75187;48.190;16.294;2024-02-28T01:32:44;98991.25;;;12.99;67.47
84926;BME280;75187;48.190;16.294;2024-02-28T01:35:09;99003.38;;;13.11;67.86
84926;BME280;75187;48.190;16.294;2024-02-28T01:37:34;98909.94;;;12.53;67.80
84926;BME280;75187;48.190;16.294;2024-02-28T01:40:00;98951.97;;;12.38;68.97
84926;BME280;75187;48.190;16.294;2024-02-28T01:42:25;98977.31;;;12.59;68.97
84926;BME280;75187;48.190;16.294;2024-02-28T01:44:50;98988.47;;;12.62;69.30
84926;BME280;75187;48.190;16.294;2024-02-28T01:47:16;98995.41;;;12.73;68.50
84926;BME280;75187;48.190;16.294;2024-02-28T01:49:42;98937.94;;;12.56;68.02
84926;BME280;75187;48.190;16.294;2024-02-28T01:52:09;98989.47;;;12.99;67.85
84926;BME280;75187;48.190;16.294;2024-02-28T01:54:35;98971.06;;;12.98;67.46
84926;BME280;75187;48.190;16.294;2024-02-28T01:57:02;98997.75;;;13.23;68.17
84926;BME280;75187;48.190;16.294;2024-02-28T01:59:28;98951.56;;;12.99;67.24
84926;BME280;75187;48.190;16.294;2024-02-28T02:01:55;99001.38;;;13.32;67.87
84926;BME280;75187;48.190;16.294;2024-02-28T02:04:20;98991.19;;;13.37;67.21
84926;BME280;75187;48.190;16.294;2024-02-28T02:06:46;98989.41;;;13.18;67.42
84926;BME280;75187;48.190;16.294;2024-02-28T02:09:13;98957.69;;;12.99;67.66
84926;BME280;75187;48.190;16.294;2024-02-28T02:11:39;98960.75;;;13.04;67.29
84926;BME280;75187;48.190;16.294;2024-02-28T02:14:04;98933.72;;;12.91;67.32
84926;BME280;75187;48.190;16.294;2024-02-28T02:16:30;98991.31;;;13.35;66.82
84926;BME280;75187;48.190;16.294;2024-02-28T02:18:55;98939.31;;;12.60;67.46
84926;BME280;75187;48.190;16.294;2024-02-28T02:21:27;98957.97;;;12.40;68.98
84926;BME280;75187;48.190;16.294;2024-02-28T02:23:55;98955.03;;;12.33;69.22
84926;BME280;75187;48.190;16.294;2024-02-28T02:26:20;98949.22;;;12.48;68.91
84926;BME280;75187;48.190;16.294;2024-02-28T02:28:45;98958.78;;;12.68;68.60
84926;BME280;75187;48.190;16.294;2024-02-28T02:31:12;99005.06;;;13.02;68.24
84926;BME280;75187;48.190;16.294;2024-02-28T02:33:38;99014.22;;;13.17;66.98
84926;BME280;75187;48.190;16.294;2024-02-28T02:36:03;99015.59;;;13.21;68.44
84926;BME280;75187;48.190;16.294;2024-02-28T02:38:28;98917.59;;;12.56;66.50
84926;BME280;75187;48.190;16.294;2024-02-28T02:40:54;98988.72;;;13.16;67.41
84926;BME280;75187;48.190;16.294;2024-02-28T02:43:19;98977.75;;;13.11;66.61
84926;BME280;75187;48.190;16.294;2024-02-28T02:45:45;99005.69;;;13.42;66.21
84926;BME280;75187;48.190;16.294;2024-02-28T02:48:10;98959.47;;;13.18;67.08
84926;BME280;75187;48.190;16.294;2024-02-28T02:50:36;99023.09;;;13.45;66.97
84926;BME280;75187;48.190;16.294;2024-02-28T02:53:02;98993.28;;;13.33;66.48
84926;BME280;75187;48.190;16.294;2024-02-28T02:55:28;99002.75;;;13.36;66.86
84926;BME280;75187;48.190;16.294;2024-02-28T02:57:54;99012.41;;;13.27;66.37
84926;BME280;75187;48.190;16.294;2024-02-28T03:00:20;99029.25;;;13.36;66.59
84926;BME280;75187;48.190;16.294;2024-02-28T03:02:45;99032.03;;;13.34;66.40
84926;BME280;75187;48.190;16.294;2024-02-28T03:05:10;99040.41;;;13.30;65.82
84926;BME280;75187;48.190;16.294;2024-02-28T03:07:36;98999.75;;;13.02;65.52
84926;BME280;75187;48.190;16.294;2024-02-28T03:10:01;98981.34;;;12.91;65.00
84926;BME280;75187;48.190;16.294;2024-02-28T03:12:28;99042.94;;;13.22;64.24
84926;BME280;75187;48.190;16.294;2024-02-28T03:14:53;99042.09;;;13.12;65.26
84926;BME280;75187;48.190;16.294;2024-02-28T03:17:18;99039.88;;;12.98;65.71
84926;BME280;75187;48.190;16.294;2024-02-28T03:19:44;99075.22;;;12.87;66.22
84926;BME280;75187;48.190;16.294;2024-02-28T03:22:09;99064.50;;;12.79;66.08
84926;BME280;75187;48.190;16.294;2024-02-28T03:24:35;99034.81;;;12.57;65.65
84926;BME280;75187;48.190;16.294;2024-02-28T03:27:04;99079.25;;;12.72;66.57
84926;BME280;75187;48.190;16.294;2024-02-28T03:29:31;99070.19;;;12.65;66.27
84926;BME280;75187;48.190;16.294;2024-02-28T03:31:58;99077.72;;;12.70;65.90
84926;BME280;75187;48.190;16.294;2024-02-28T03:34:23;99073.81;;;12.64;65.62
84926;BME280;75187;48.190;16.294;2024-02-28T03:36:49;99070.47;;;12.62;65.38
84926;BME280;75187;48.190;16.294;2024-02-28T03:39:14;99080.06;;;12.54;65.46
84926;BME280;75187;48.190;16.294;2024-02-28T03:41:39;99085.75;;;12.49;65.60
84926;BME280;75187;48.190;16.294;2024-02-28T03:44:05;99095.75;;;12.46;66.08
84926;BME280;75187;48.190;16.294;2024-02-28T03:46:31;99029.97;;;12.04;66.17
84926;BME280;75187;48.190;16.294;2024-02-28T03:48:56;99100.41;;;12.24;66.41
84926;BME280;75187;48.190;16.294;2024-02-28T03:51:22;99000.06;;;11.64;66.34
84926;BME280;75187;48.190;16.294;2024-02-28T03:53:48;99050.75;;;11.88;66.59
84926;BME280;75187;48.190;16.294;2024-02-28T03:56:13;99024.81;;;11.63;66.49
84926;BME280;75187;48.190;16.294;2024-02-28T03:58:46;99113.22;;;12.19;66.42
84926;BME280;75187;48.190;16.294;2024-02-28T04:01:11;99060.94;;;11.92;66.22
84926;BME280;75187;48.190;16.294;2024-02-28T04:03:37;99075.13;;;11.91;66.08
84926;BME280;75187;48.190;16.294;2024-02-28T04:06:02;99124.88;;;12.16;66.40
84926;BME280;75187;48.190;16.294;2024-02-28T04:08:27;99096.03;;;12.04;66.04
84926;BME280;75187;48.190;16.294;2024-02-28T04:10:53;99128.53;;;12.25;65.88
84926;BME280;75187;48.190;16.294;2024-02-28T04:13:18;99114.41;;;12.05;66.08
84926;BME280;75187;48.190;16.294;2024-02-28T04:15:43;99130.78;;;11.99;66.00
84926;BME280;75187;48.190;16.294;2024-02-28T04:18:11;99082.09;;;11.72;65.91
84926;BME280;75187;48.190;16.294;2024-02-28T04:20:36;99103.03;;;11.84;65.88
84926;BME280;75187;48.190;16.294;2024-02-28T04:23:03;99120.41;;;11.87;65.83
84926;BME280;75187;48.190;16.294;2024-02-28T04:25:29;99137.69;;;11.91;65.90
84926;BME280;75187;48.190;16.294;2024-02-28T04:27:54;99125.47;;;11.90;65.45
84926;BME280;75187;48.190;16.294;2024-02-28T04:30:19;99132.84;;;11.96;65.35
84926;BME280;75187;48.190;16.294;2024-02-28T04:32:45;99138.22;;;11.85;65.39
84926;BME280;75187;48.190;16.294;2024-02-28T04:35:10;99132.28;;;11.72;65.67
84926;BME280;75187;48.190;16.294;2024-02-28T04:37:35;99090.72;;;11.33;65.29
84926;BME280;75187;48.190;16.294;2024-02-28T04:40:02;99062.19;;;11.06;65.51
84926;BME280;75187;48.190;16.294;2024-02-28T04:42:28;99124.47;;;11.50;65.45
84926;BME280;75187;48.190;16.294;2024-02-28T04:44:53;99095.56;;;11.28;66.02
84926;BME280;75187;48.190;16.294;2024-02-28T04:47:19;99101.28;;;11.33;66.15
84926;BME280;75187;48.190;16.294;2024-02-28T04:49:44;99140.69;;;11.56;65.26
84926;BME280;75187;48.190;16.294;2024-02-28T04:52:09;99111.44;;;11.37;65.32
84926;BME280;75187;48.190;16.294;2024-02-28T04:54:35;99141.03;;;11.52;65.42
84926;BME280;75187;48.190;16.294;2024-02-28T04:57:00;99152.72;;;11.38;65.89
84926;BME280;75187;48.190;16.294;2024-02-28T04:59:26;99133.25;;;11.19;66.53
84926;BME280;75187;48.190;16.294;2024-02-28T05:01:51;99150.94;;;11.39;66.31
84926;BME280;75187;48.190;16.294;2024-02-28T05:04:17;99095.97;;;11.12;65.20
84926;BME280;75187;48.190;16.294;2024-02-28T05:06:42;99110.50;;;11.07;65.68
84926;BME280;75187;48.190;16.294;2024-02-28T05:09:08;99160.69;;;11.27;65.08
84926;BME280;75187;48.190;16.294;2024-02-28T05:11:34;99123.50;;;10.99;65.91
84926;BME280;75187;48.190;16.294;2024-02-28T05:13:59;99162.81;;;11.13;65.36
84926;BME280;75187;48.190;16.294;2024-02-28T05:16:24;99135.50;;;10.92;66.11
84926;BME280;75187;48.190;16.294;2024-02-28T05:18:50;99161.03;;;11.02;65.85
84926;BME280;75187;48.190;16.294;2024-02-28T05:21:15;99112.69;;;10.70;66.56
84926;BME280;75187;48.190;16.294;2024-02-28T05:23:40;99164.94;;;11.08;65.57
84926;BME280;75187;48.190;16.294;2024-02-28T05:26:06;99174.16;;;11.13;65.60
84926;BME280;75187;48.190;16.294;2024-02-28T05:28:35;99161.56;;;11.17;65.08
84926;BME280;75187;48.190;16.294;2024-02-28T05:31:22;99141.56;;;10.83;65.74
84926;BME280;75187;48.190;16.294;2024-02-28T05:33:48;99074.19;;;10.37;65.82
84926;BME280;75187;48.190;16.294;2024-02-28T05:36:13;99123.81;;;10.74;65.02
84926;BME280;75187;48.190;16.294;2024-02-28T05:38:39;99189.72;;;10.96;64.94
84926;BME280;75187;48.190;16.294;2024-02-28T05:41:04;99179.53;;;10.91;64.92
84926;BME280;75187;48.190;16.294;2024-02-28T05:43:29;99181.06;;;10.94;65.46
84926;BME280;75187;48.190;16.294;2024-02-28T05:45:54;99138.69;;;10.64;65.42
84926;BME280;75187;48.190;16.294;2024-02-28T05:48:20;99188.97;;;10.94;65.36
84926;BME280;75187;48.190;16.294;2024-02-28T05:50:45;99120.03;;;10.56;64.97
84926;BME280;75187;48.190;16.294;2024-02-28T05:53:11;99206.13;;;10.88;65.60
84926;BME280;75187;48.190;16.294;2024-02-28T05:55:36;99140.19;;;10.46;65.75
84926;BME280;75187;48.190;16.294;2024-02-28T05:58:02;99142.09;;;10.44;65.58
84926;BME280;75187;48.190;16.294;2024-02-28T06:00:27;99071.81;;;9.90;64.77
84926;BME280;75187;48.190;16.294;2024-02-28T06:02:53;99216.47;;;10.91;64.65
84926;BME280;75187;48.190;16.294;2024-02-28T06:05:19;99162.78;;;10.59;64.55
84926;BME280;75187;48.190;16.294;2024-02-28T06:07:44;99220.53;;;10.84;64.27
84926;BME280;75187;48.190;16.294;2024-02-28T06:10:10;99220.78;;;10.70;65.19
84926;BME280;75187;48.190;16.294;2024-02-28T06:12:36;99205.81;;;10.71;65.26
84926;BME280;75187;48.190;16.294;2024-02-28T06:15:01;99221.84;;;10.79;65.35
84926;BME280;75187;48.190;16.294;2024-02-28T06:17:26;99174.09;;;10.50;64.85
84926;BME280;75187;48.190;16.294;2024-02-28T06:19:52;99230.13;;;10.85;65.13
84926;BME280;75187;48.190;16.294;2024-02-28T06:22:17;99227.00;;;10.91;64.53
84926;BME280;75187;48.190;16.294;2024-02-28T06:24:45;99186.50;;;10.70;64.00
84926;BME280;75187;48.190;16.294;2024-02-28T06:27:10;99144.84;;;10.42;64.68
84926;BME280;75187;48.190;16.294;2024-02-28T06:29:38;99232.38;;;11.01;64.12
84926;BME280;75187;48.190;16.294;2024-02-28T06:32:03;99250.84;;;11.01;64.83
84926;BME280;75187;48.190;16.294;2024-02-28T06:34:29;99249.19;;;10.89;64.30
84926;BME280;75187;48.190;16.294;2024-02-28T06:36:54;99261.75;;;10.96;65.02
84926;BME280;75187;48.190;16.294;2024-02-28T06:39:20;99225.47;;;10.67;64.23
84926;BME280;75187;48.190;16.294;2024-02-28T06:41:45;99201.75;;;10.56;65.16
84926;BME280;75187;48.190;16.294;2024-02-28T06:44:10;99225.34;;;10.68;64.35
84926;BME280;75187;48.190;16.294;2024-02-28T06:46:36;99272.31;;;10.96;64.33
84926;BME280;75187;48.190;16.294;2024-02-28T06:49:02;99214.91;;;10.67;64.58
84926;BME280;75187;48.190;16.294;2024-02-28T06:51:27;99281.09;;;10.97;63.78
84926;BME280;75187;48.190;16.294;2024-02-28T06:53:53;99270.78;;;10.83;64.15
84926;BME280;75187;48.190;16.294;2024-02-28T06:56:19;99242.97;;;10.57;64.98
84926;BME280;75187;48.190;16.294;2024-02-28T06:58:45;99286.25;;;10.76;64.60
84926;BME280;75187;48.190;16.294;2024-02-28T07:01:10;99300.97;;;10.90;64.46
84926;BME280;75187;48.190;16.294;2024-02-28T07:03:35;99305.28;;;10.91;64.73
84926;BME280;75187;48.190;16.294;2024-02-28T07:06:01;99295.25;;;10.85;64.16
84926;BME280;75187;48.190;16.294;2024-02-28T07:08:26;99269.69;;;10.74;64.87
84926;BME280;75187;48.190;16.294;2024-02-28T07:10:52;99324.00;;;10.99;64.72
84926;BME280;75187;48.190;16.294;2024-02-28T07:13:21;99325.44;;;11.03;64.54
84926;BME280;75187;48.190;16.294;2024-02-28T07:15:47;99309.59;;;11.03;63.90
84926;BME280;75187;48.190;16.294;2024-02-28T07:18:14;99311.03;;;11.07;63.98
84926;BME280;75187;48.190;16.294;2024-02-28T07:20:39;99325.44;;;11.03;64.42
84926;BME280;75187;48.190;16.294;2024-02-28T07:23:05;99278.44;;;10.75;63.71
84926;BME280;75187;48.190;16.294;2024-02-28T07:25:30;99312.75;;;10.97;63.97
84926;BME280;75187;48.190;16.294;2024-02-28T07:27:58;99198.16;;;10.24;64.31
84926;BME280;75187;48.190;16.294;2024-02-28T07:30:24;99275.81;;;10.64;64.40
84926;BME280;75187;48.190;16.294;2024-02-28T07:32:51;99318.25;;;10.83;64.80
84926;BME280;75187;48.190;16.294;2024-02-28T07:35:16;99272.22;;;10.65;65.07
84926;BME280;75187;48.190;16.294;2024-02-28T07:37:41;99334.06;;;11.05;64.85
84926;BME280;75187;48.190;16.294;2024-02-28T07:40:07;99288.50;;;10.81;64.81
84926;BME280;75187;48.190;16.294;2024-02-28T07:42:33;99340.31;;;11.15;63.99
84926;BME280;75187;48.190;16.294;2024-02-28T07:45:00;99339.81;;;11.21;64.20
84926;BME280;75187;48.190;16.294;2024-02-28T07:47:25;99339.09;;;11.19;64.30
84926;BME280;75187;48.190;16.294;2024-02-28T07:49:51;99323.63;;;11.14;63.73
84926;BME280;75187;48.190;16.294;2024-02-28T07:52:17;99294.50;;;10.94;63.97
84926;BME280;75187;48.190;16.294;2024-02-28T07:54:42;99314.16;;;11.01;63.65
84926;BME280;75187;48.190;16.294;2024-02-28T07:57:11;99306.00;;;11.04;63.48
84926;BME280;75187;48.190;16.294;2024-02-28T07:59:43;99364.16;;;11.46;63.09
84926;BME280;75187;48.190;16.294;2024-02-28T08:02:08;99353.69;;;11.45;62.85
84926;BME280;75187;48.190;16.294;2024-02-28T08:04:36;99363.66;;;11.52;63.03
84926;BME280;75187;48.190;16.294;2024-02-28T08:07:01;99373.50;;;11.50;62.40
84926;BME280;75187;48.190;16.294;2024-02-28T08:09:28;99381.56;;;11.60;62.24
84926;BME280;75187;48.190;16.294;2024-02-28T08:11:53;99328.28;;;11.33;62.46
84926;BME280;75187;48.190;16.294;2024-02-28T08:14:18;99349.03;;;11.48;62.96
84926;BME280;75187;48.190;16.294;2024-02-28T08:16:44;99341.00;;;11.39;61.83
84926;BME280;75187;48.190;16.294;2024-02-28T08:19:09;99394.97;;;11.79;61.98
84926;BME280;75187;48.190;16.294;2024-02-28T08:21:35;99332.84;;;11.42;61.72
84926;BME280;75187;48.190;16.294;2024-02-28T08:24:00;99388.75;;;11.69;62.30
84926;BME280;75187;48.190;16.294;2024-02-28T08:26:30;99381.41;;;11.72;62.24
84926;BME280;75187;48.190;16.294;2024-02-28T08:28:56;99396.91;;;11.77;62.33
84926;BME280;75187;48.190;16.294;2024-02-28T08:31:21;99391.38;;;11.69;61.48
84926;BME280;75187;48.190;16.294;2024-02-28T08:33:46;99335.94;;;11.47;61.89
84926;BME280;75187;48.190;16.294;2024-02-28T08:36:12;99389.78;;;11.88;61.50
84926;BME280;75187;48.190;16.294;2024-02-28T08:38:37;99382.94;;;11.86;61.92
84926;BME280;75187;48.190;16.294;2024-02-28T08:41:04;99400.66;;;12.06;61.06
84926;BME280;75187;48.190;16.294;2024-02-28T08:43:30;99404.31;;;11.94;61.01
84926;BME280;75187;48.190;16.294;2024-02-28T08:45:55;99356.16;;;11.79;60.68
84926;BME280;75187;48.190;16.294;2024-02-28T08:48:21;99366.03;;;11.77;60.82
84926;BME280;75187;48.190;16.294;2024-02-28T08:50:48;99415.06;;;12.02;60.46
84926;BME280;75187;48.190;16.294;2024-02-28T08:53:13;99375.25;;;11.83;60.85
84926;BME280;75187;48.190;16.294;2024-02-28T08:55:38;99425.63;;;12.02;60.92
84926;BME280;75187;48.190;16.294;2024-02-28T08:58:04;99387.50;;;11.84;60.73
84926;BME280;75187;48.190;16.294;2024-02-28T09:00:29;99375.00;;;11.86;60.98
84926;BME280;75187;48.190;16.294;2024-02-28T09:02:55;99429.59;;;12.39;60.45
84926;BME280;75187;48.190;16.294;2024-02-28T09:05:21;99377.63;;;12.28;59.95
84926;BME280;75187;48.190;16.294;2024-02-28T09:07:46;99425.19;;;12.59;59.22
84926;BME280;75187;48.190;16.294;2024-02-28T09:10:16;99417.25;;;12.39;59.68
84926;BME280;75187;48.190;16.294;2024-02-28T09:12:46;99374.19;;;12.17;59.97
84926;BME280;75187;48.190;16.294;2024-02-28T09:15:11;99418.84;;;12.31;60.25
84926;BME280;75187;48.190;16.294;2024-02-28T09:17:37;99430.53;;;12.48;59.96
84926;BME280;75187;48.190;16.294;2024-02-28T09:20:02;99410.34;;;12.48;60.73
84926;BME280;75187;48.190;16.294;2024-02-28T09:22:29;99432.34;;;12.68;59.63
84926;BME280;75187;48.190;16.294;2024-02-28T09:24:54;99394.97;;;12.42;59.40
84926;BME280;75187;48.190;16.294;2024-02-28T09:27:20;99426.28;;;12.57;59.68
84926;BME280;75187;48.190;16.294;2024-02-28T09:29:45;99439.53;;;12.77;60.05
84926;BME280;75187;48.190;16.294;2024-02-28T09:32:11;99401.44;;;12.48;58.63
84926;BME280;75187;48.190;16.294;2024-02-28T09:34:37;99398.59;;;12.41;59.22
84926;BME280;75187;48.190;16.294;2024-02-28T09:37:02;99348.78;;;12.05;60.01
84926;BME280;75187;48.190;16.294;2024-02-28T09:39:29;99432.91;;;12.51;59.88
84926;BME280;75187;48.190;16.294;2024-02-28T09:41:54;99458.25;;;12.65;59.88
84926;BME280;75187;48.190;16.294;2024-02-28T09:44:21;99468.19;;;12.72;59.97
84926;BME280;75187;48.190;16.294;2024-02-28T09:46:49;99457.34;;;12.75;59.40
84926;BME280;75187;48.190;16.294;2024-02-28T09:49:16;99457.50;;;12.94;59.82
84926;BME280;75187;48.190;16.294;2024-02-28T09:51:43;99412.28;;;12.86;58.54
84926;BME280;75187;48.190;16.294;2024-02-28T09:54:09;99458.50;;;13.23;58.36
84926;BME280;75187;48.190;16.294;2024-02-28T09:56:34;99465.16;;;13.38;57.79
84926;BME280;75187;48.190;16.294;2024-02-28T09:59:00;99468.28;;;13.53;58.17
84926;BME280;75187;48.190;16.294;2024-02-28T10:01:28;99483.03;;;13.76;57.93
84926;BME280;75187;48.190;16.294;2024-02-28T10:03:59;99467.69;;;13.79;56.83
84926;BME280;75187;48.190;16.294;2024-02-28T10:06:25;99469.41;;;13.90;56.63
84926;BME280;75187;48.190;16.294;2024-02-28T10:08:50;99489.50;;;13.92;57.16
84926;BME280;75187;48.190;16.294;2024-02-28T10:11:24;99480.81;;;14.20;56.87
84926;BME280;75187;48.190;16.294;2024-02-28T10:13:50;99438.19;;;14.12;55.32
84926;BME280;75187;48.190;16.294;2024-02-28T10:16:16;99495.81;;;14.68;55.12
84926;BME280;75187;48.190;16.294;2024-02-28T10:18:45;99445.13;;;14.62;54.59
84926;BME280;75187;48.190;16.294;2024-02-28T10:21:14;99502.25;;;15.32;53.33
84926;BME280;75187;48.190;16.294;2024-02-28T10:23:44;99508.03;;;15.55;52.98
84926;BME280;75187;48.190;16.294;2024-02-28T10:26:10;99460.41;;;15.34;52.59
84926;BME280;75187;48.190;16.294;2024-02-28T10:28:37;99486.09;;;15.43;51.49
84926;BME280;75187;48.190;16.294;2024-02-28T10:31:04;99506.28;;;15.36;51.90
84926;BME280;75187;48.190;16.294;2024-02-28T10:33:29;99506.41;;;15.35;52.20
84926;BME280;75187;48.190;16.294;2024-02-28T10:35:55;99447.97;;;15.16;52.59
84926;BME280;75187;48.190;16.294;2024-02-28T10:38:21;99511.34;;;15.66;51.87
84926;BME280;75187;48.190;16.294;2024-02-28T10:40:47;99489.47;;;15.82;51.86
84926;BME280;75187;48.190;16.294;2024-02-28T10:43:16;99475.06;;;15.75;51.46
84926;BME280;75187;48.190;16.294;2024-02-28T10:45:42;99469.53;;;15.95;50.59
84926;BME280;75187;48.190;16.294;2024-02-28T10:48:08;99477.59;;;16.03;50.46
84926;BME280;75187;48.190;16.294;2024-02-28T10:50:35;99487.88;;;16.16;50.02
84926;BME280;75187;48.190;16.294;2024-02-28T10:53:02;99439.88;;;15.90;50.20
84926;BME280;75187;48.190;16.294;2024-02-28T10:55:34;99485.53;;;16.13;49.73
84926;BME280;75187;48.190;16.294;2024-02-28T10:58:06;99493.41;;;16.05;50.55
84926;BME280;75187;48.190;16.294;2024-02-28T11:00:34;99406.22;;;15.45;50.11
84926;BME280;75187;48.190;16.294;2024-02-28T11:03:03;99491.91;;;15.66;49.77
84926;BME280;75187;48.190;16.294;2024-02-28T11:05:39;99454.28;;;15.15;50.54
84926;BME280;75187;48.190;16.294;2024-02-28T11:08:32;99496.31;;;15.48;50.83
84926;BME280;75187;48.190;16.294;2024-02-28T11:11:03;99461.94;;;15.18;50.86
84926;BME280;75187;48.190;16.294;2024-02-28T11:13:29;99496.31;;;15.48;51.71
84926;BME280;75187;48.190;16.294;2024-02-28T11:16:07;99438.72;;;15.20;51.20
84926;BME280;75187;48.190;16.294;2024-02-28T11:18:32;99449.91;;;15.23;50.61
84926;BME280;75187;48.190;16.294;2024-02-28T11:20:58;99457.19;;;15.31;50.33
84926;BME280;75187;48.190;16.294;2024-02-28T11:23:23;99479.53;;;15.28;51.10
84926;BME280;75187;48.190;16.294;2024-02-28T11:25:49;99485.72;;;15.19;51.18
84926;BME280;75187;48.190;16.294;2024-02-28T11:28:15;99480.94;;;15.23;52.23
84926;BME280;75187;48.190;16.294;2024-02-28T11:30:41;99480.38;;;15.29;51.14
84926;BME280;75187;48.190;16.294;2024-02-28T11:33:06;99485.66;;;15.48;51.55
84926;BME280;75187;48.190;16.294;2024-02-28T11:35:34;99484.38;;;15.61;50.56
84926;BME280;75187;48.190;16.294;2024-02-28T11:37:59;99479.19;;;15.60;50.84
84926;BME280;75187;48.190;16.294;2024-02-28T11:40:25;99472.75;;;15.62;50.67
84926;BME280;75187;48.190;16.294;2024-02-28T11:42:54;99473.88;;;15.60;51.00
84926;BME280;75187;48.190;16.294;2024-02-28T11:45:20;99484.47;;;15.69;51.40
84926;BME280;75187;48.190;16.294;2024-02-28T11:47:45;99437.00;;;15.38;51.18
84926;BME280;75187;48.190;16.294;2024-02-28T11:50:11;99421.31;;;15.54;51.00
84926;BME280;75187;48.190;16.294;2024-02-28T11:52:37;99434.13;;;15.68;51.63
84926;BME280;75187;48.190;16.294;2024-02-28T11:55:03;99464.00;;;16.06;50.65
84926;BME280;75187;48.190;16.294;2024-02-28T11:57:28;99447.66;;;16.19;50.63
84926;BME280;75187;48.190;16.294;2024-02-28T11:59:56;99453.59;;;16.13;50.22
84926;BME280;75187;48.190;16.294;2024-02-28T12:02:22;99424.03;;;16.16;50.58
84926;BME280;75187;48.190;16.294;2024-02-28T12:04:50;99423.78;;;16.09;50.22
84926;BME280;75187;48.190;16.294;2024-02-28T12:07:16;99416.78;;;16.08;49.99
84926;BME280;75187;48.190;16.294;2024-02-28T12:09:41;99429.47;;;15.97;50.07
84926;BME280;75187;48.190;16.294;2024-02-28T12:12:09;99467.09;;;16.02;50.46
84926;BME280;75187;48.190;16.294;2024-02-28T12:14:37;99475.25;;;16.00;50.79
84926;BME280;75187;48.190;16.294;2024-02-28T12:17:08;99367.59;;;15.50;50.59
84926;BME280;75187;48.190;16.294;2024-02-28T12:19:35;99462.78;;;16.01;50.43
84926;BME280;75187;48.190;16.294;2024-02-28T12:22:00;99456.66;;;15.91;50.37
84926;BME280;75187;48.190;16.294;2024-02-28T12:24:26;99414.34;;;15.43;50.32
84926;BME280;75187;48.190;16.294;2024-02-28T12:26:51;99442.19;;;15.39;51.39
84926;BME280;75187;48.190;16.294;2024-02-28T12:29:17;99461.78;;;15.38;52.34
84926;BME280;75187;48.190;16.294;2024-02-28T12:31:42;99468.91;;;15.38;51.20
84926;BME280;75187;48.190;16.294;2024-02-28T12:34:08;99442.06;;;15.41;51.87
84926;BME280;75187;48.190;16.294;2024-02-28T12:36:33;99427.53;;;15.26;51.84
84926;BME280;75187;48.190;16.294;2024-02-28T12:38:59;99447.91;;;15.44;51.78
84926;BME280;75187;48.190;16.294;2024-02-28T12:41:28;99434.91;;;15.41;51.62
84926;BME280;75187;48.190;16.294;2024-02-28T12:43:54;99446.97;;;15.36;50.94